Time;durP1;ratioP1;P1;durP2;ratioP2;P2;SDS_P1;SDS_P2;PMS_P1;PMS_P2;Temp;Humidity;BMP_temperature;BMP_pressure;BME280_temperature;BME280_humidity;BME280_pressure;Samples;Min_cycle;Max_cycle;Signal;HPM_P1;HPM_P2
2022/09/26 00:01:22;;;;;;;4.57;2.35;;;;;;;;;;5325538;28;20490;-66
2022/09/26 00:03:55;;;;;;;3.97;1.70;;;;;;;;;;5325383;28;20161;-66
2022/09/26 00:06:27;;;;;;;4.38;2.15;;;;;;;;;;5324679;28;20027;-67
2022/09/26 00:08:58;;;;;;;5.05;2.08;;;;;;;;;;5326580;28;20391;-66
2022/09/26 00:11:30;;;;;;;3.78;1.98;;;;;;;;;;5325631;28;20024;-66
2022/09/26 00:14:04;;;;;;;4.07;2.45;;;;;;;;;;5325026;28;20065;-66
2022/09/26 00:16:35;;;;;;;5.75;2.40;;;;;;;;;;5325534;27;20462;-66
2022/09/26 00:19:06;;;;;;;3.90;1.95;;;;;;;;;;5325828;28;20031;-66
2022/09/26 00:21:37;;;;;;;7.00;2.35;;;;;;;;;;5324458;28;20488;-66
2022/09/26 00:24:09;;;;;;;7.15;2.55;;;;;;;;;;5325505;27;20031;-66
2022/09/26 00:26:40;;;;;;;5.03;2.45;;;;;;;;;;5325048;28;20019;-66
2022/09/26 00:29:11;;;;;;;3.97;1.90;;;;;;;;;;5325055;28;20044;-66
2022/09/26 00:31:44;;;;;;;5.85;2.20;;;;;;;;;;5325029;28;20272;-66
2022/09/26 00:34:16;;;;;;;4.30;2.45;;;;;;;;;;5324837;28;20096;-67
2022/09/26 00:36:47;;;;;;;6.88;2.63;;;;;;;;;;5324998;28;20470;-66
2022/09/26 00:39:18;;;;;;;3.58;2.05;;;;;;;;;;5325574;28;20091;-67
2022/09/26 00:41:50;;;;;;;4.60;2.92;;;;;;;;;;5324221;28;20094;-66
2022/09/26 00:44:42;;;;;;;7.82;2.85;;;;;;;;;;5325393;28;20300;-66
2022/09/26 00:47:19;;;;;;;5.53;2.42;;;;;;;;;;5325332;28;20489;-67
2022/09/26 00:49:54;;;;;;;5.68;2.47;;;;;;;;;;5322880;28;20051;-66
2022/09/26 00:52:34;;;;;;;4.72;2.55;;;;;;;;;;5324696;28;20111;-66
2022/09/26 00:55:07;;;;;;;6.63;2.30;;;;;;;;;;5325233;28;20019;-67
2022/09/26 00:57:45;;;;;;;3.55;1.90;;;;;;;;;;5323860;28;20046;-67
2022/09/26 01:00:16;;;;;;;4.65;1.90;;;;;;;;;;5325324;28;20105;-66
2022/09/26 01:02:50;;;;;;;5.10;2.63;;;;;;;;;;5323852;28;20023;-67
2022/09/26 01:05:22;;;;;;;3.25;1.70;;;;;;;;;;5324972;28;20034;-66
2022/09/26 01:07:55;;;;;;;3.55;1.65;;;;;;;;;;5324410;28;20051;-66
2022/09/26 01:10:28;;;;;;;2.95;1.42;;;;;;;;;;5323415;28;20023;-66
2022/09/26 01:13:00;;;;;;;5.15;1.60;;;;;;;;;;5324743;28;20012;-67
2022/09/26 01:15:33;;;;;;;5.47;1.65;;;;;;;;;;5324291;28;20445;-67
2022/09/26 01:18:06;;;;;;;7.60;1.63;;;;;;;;;;5324017;28;20015;-66
2022/09/26 01:20:57;;;;;;;3.30;1.58;;;;;;;;;;5323945;28;20023;-67
2022/09/26 01:23:41;;;;;;;4.03;1.35;;;;;;;;;;5322737;28;20110;-67
2022/09/26 01:26:21;;;;;;;3.67;1.48;;;;;;;;;;5324654;28;20031;-66
2022/09/26 01:29:10;;;;;;;3.13;1.52;;;;;;;;;;5323878;28;20027;-66
2022/09/26 01:32:47;;;;;;;4.50;1.10;;;;;;;;;;5323304;28;20042;-66
2022/09/26 01:34:58;;;;;;;8.45;1.58;;;;;;;;;;5323780;28;20035;-67
2022/09/26 01:37:50;;;;;;;3.72;1.50;;;;;;;;;;5322892;28;20027;-67
2022/09/26 01:40:30;;;;;;;3.92;1.10;;;;;;;;;;5324523;28;20027;-66
2022/09/26 01:43:07;;;;;;;4.10;1.30;;;;;;;;;;5324216;28;20027;-66
2022/09/26 01:45:44;;;;;;;3.20;1.05;;;;;;;;;;5322832;28;20030;-67
2022/09/26 01:48:23;;;;;;;5.53;1.30;;;;;;;;;;5324584;28;20008;-66
2022/09/26 01:50:56;;;;;;;3.28;1.35;;;;;;;;;;5323777;28;20110;-66
2022/09/26 01:53:37;;;;;;;4.95;1.35;;;;;;;;;;5322912;28;20023;-66
2022/09/26 01:56:11;;;;;;;3.53;0.88;;;;;;;;;;5324226;28;20023;-66
2022/09/26 01:58:51;;;;;;;3.95;1.00;;;;;;;;;;5323037;28;20490;-66
2022/09/26 02:01:24;;;;;;;2.95;0.82;;;;;;;;;;5326353;28;20432;-66
2022/09/26 02:03:58;;;;;;;5.70;1.10;;;;;;;;;;5327938;28;20454;-66
2022/09/26 02:06:32;;;;;;;3.60;1.55;;;;;;;;;;5326408;28;20102;-66
2022/09/26 02:09:08;;;;;;;4.32;0.93;;;;;;;;;;5328070;28;20011;-66
2022/09/26 02:11:40;;;;;;;5.95;0.90;;;;;;;;;;5327406;28;20044;-67
2022/09/26 02:14:24;;;;;;;4.47;1.00;;;;;;;;;;5326971;28;20066;-67
2022/09/26 02:16:58;;;;;;;4.65;0.80;;;;;;;;;;5327376;28;20019;-66
2022/09/26 02:19:41;;;;;;;5.15;1.15;;;;;;;;;;5327265;28;20019;-67
2022/09/26 02:22:13;;;;;;;5.88;0.88;;;;;;;;;;5327688;28;20038;-66
2022/09/26 02:24:44;;;;;;;5.68;1.00;;;;;;;;;;5326963;28;20035;-66
2022/09/26 02:27:15;;;;;;;4.78;0.90;;;;;;;;;;5326649;28;20020;-66
2022/09/26 02:29:47;;;;;;;3.85;0.80;;;;;;;;;;5326716;28;20043;-66
2022/09/26 02:32:20;;;;;;;2.08;0.73;;;;;;;;;;5327536;28;20091;-66
2022/09/26 02:34:51;;;;;;;8.63;0.90;;;;;;;;;;5325955;28;20016;-67
2022/09/26 02:37:22;;;;;;;4.80;0.70;;;;;;;;;;5327360;28;20019;-66
2022/09/26 02:39:54;;;;;;;3.97;0.90;;;;;;;;;;5326650;28;20441;-66
2022/09/26 02:42:35;;;;;;;3.00;0.70;;;;;;;;;;5325956;28;20019;-66
2022/09/26 02:45:19;;;;;;;4.85;0.95;;;;;;;;;;5326884;27;20063;-66
2022/09/26 02:48:14;;;;;;;4.00;0.90;;;;;;;;;;5325716;28;20031;-66
2022/09/26 02:50:53;;;;;;;3.90;0.80;;;;;;;;;;5297081;28;20489;-66
2022/09/26 02:53:30;;;;;;;5.18;1.02;;;;;;;;;;5326920;28;20016;-67
2022/09/26 02:56:11;;;;;;;3.50;0.90;;;;;;;;;;5326364;28;20521;-66
2022/09/26 02:58:51;;;;;;;3.40;0.70;;;;;;;;;;5326119;28;20043;-66
2022/09/26 03:01:47;;;;;;;6.22;0.77;;;;;;;;;;5327062;28;20032;-66
2022/09/26 03:04:21;;;;;;;2.75;0.60;;;;;;;;;;5326780;28;20546;-66
2022/09/26 03:06:55;;;;;;;3.95;0.60;;;;;;;;;;5326162;28;20428;-66
2022/09/26 03:09:28;;;;;;;3.47;0.93;;;;;;;;;;5325257;28;20020;-67
2022/09/26 03:12:01;;;;;;;5.47;0.60;;;;;;;;;;5325884;28;20019;-67
2022/09/26 03:14:33;;;;;;;3.65;0.60;;;;;;;;;;5325633;28;20015;-67
2022/09/26 03:17:05;;;;;;;3.42;0.60;;;;;;;;;;5325799;28;20016;-67
2022/09/26 03:19:44;;;;;;;4.70;1.15;;;;;;;;;;5325846;28;20039;-67
2022/09/26 03:22:15;;;;;;;4.40;0.60;;;;;;;;;;5326279;27;20019;-66
2022/09/26 03:24:47;;;;;;;5.40;0.60;;;;;;;;;;5325029;28;20028;-67
2022/09/26 03:27:18;;;;;;;6.30;0.60;;;;;;;;;;5326358;28;20018;-66
2022/09/26 03:29:50;;;;;;;3.63;0.73;;;;;;;;;;5325711;28;20485;-66
2022/09/26 03:32:21;;;;;;;8.20;0.60;;;;;;;;;;5325527;28;20450;-66
2022/09/26 03:34:52;;;;;;;2.93;0.80;;;;;;;;;;5325684;28;20114;-66
2022/09/26 03:37:23;;;;;;;7.95;0.70;;;;;;;;;;5325112;28;20257;-67
2022/09/26 03:39:54;;;;;;;5.40;0.57;;;;;;;;;;5325853;28;20023;-67
2022/09/26 03:42:26;;;;;;;3.83;0.82;;;;;;;;;;5325449;28;20030;-67
2022/09/26 03:44:58;;;;;;;4.18;0.60;;;;;;;;;;5325363;28;20023;-66
2022/09/26 03:47:29;;;;;;;3.95;0.60;;;;;;;;;;5325440;28;20060;-67
2022/09/26 03:50:01;;;;;;;5.28;0.75;;;;;;;;;;5325925;27;20040;-66
2022/09/26 03:52:32;;;;;;;6.75;0.60;;;;;;;;;;5324424;28;20007;-67
2022/09/26 03:55:03;;;;;;;2.95;0.60;;;;;;;;;;5325941;28;20077;-66
2022/09/26 03:57:35;;;;;;;3.88;0.63;;;;;;;;;;5325345;28;20027;-67
2022/09/26 04:00:06;;;;;;;5.60;0.55;;;;;;;;;;5325052;28;20027;-66
2022/09/26 04:02:38;;;;;;;5.32;0.75;;;;;;;;;;5325067;28;20012;-66
2022/09/26 04:05:09;;;;;;;6.57;1.13;;;;;;;;;;5324623;28;20115;-66
2022/09/26 04:07:43;;;;;;;3.65;0.70;;;;;;;;;;5325179;28;20020;-66
2022/09/26 04:10:14;;;;;;;3.22;0.60;;;;;;;;;;5325502;28;20102;-67
2022/09/26 04:12:45;;;;;;;3.45;0.60;;;;;;;;;;5324126;27;20106;-67
2022/09/26 04:15:16;;;;;;;5.95;0.60;;;;;;;;;;5325373;28;20429;-67
2022/09/26 04:17:48;;;;;;;3.50;0.77;;;;;;;;;;5324728;28;20073;-67
2022/09/26 04:20:19;;;;;;;5.03;1.02;;;;;;;;;;5324754;28;20027;-66
2022/09/26 04:22:51;;;;;;;2.42;0.80;;;;;;;;;;5324677;28;20322;-66
2022/09/26 04:25:22;;;;;;;2.70;0.60;;;;;;;;;;5324817;28;20031;-66
2022/09/26 04:27:53;;;;;;;5.10;0.80;;;;;;;;;;5323809;28;20373;-66
2022/09/26 04:30:24;;;;;;;4.95;0.77;;;;;;;;;;5324676;28;20047;-66
2022/09/26 04:32:55;;;;;;;3.83;0.82;;;;;;;;;;5325067;28;20028;-66
2022/09/26 04:35:27;;;;;;;6.00;0.60;;;;;;;;;;5323848;28;20024;-66
2022/09/26 04:37:58;;;;;;;5.93;1.00;;;;;;;;;;5324990;28;20261;-66
2022/09/26 04:40:30;;;;;;;2.88;0.65;;;;;;;;;;5323927;28;20168;-66
2022/09/26 04:43:01;;;;;;;3.55;0.63;;;;;;;;;;5325013;28;20019;-66
2022/09/26 04:45:32;;;;;;;4.68;0.60;;;;;;;;;;5323959;28;20031;-66
2022/09/26 04:48:03;;;;;;;3.35;0.55;;;;;;;;;;5323992;28;20098;-66
2022/09/26 04:50:35;;;;;;;3.67;0.80;;;;;;;;;;5324013;28;20128;-66
2022/09/26 04:53:06;;;;;;;3.60;0.50;;;;;;;;;;5324614;28;20044;-66
2022/09/26 04:55:41;;;;;;;7.93;0.80;;;;;;;;;;5323346;28;20019;-66
2022/09/26 04:58:13;;;;;;;3.17;0.60;;;;;;;;;;5324432;28;20012;-66
2022/09/26 05:00:46;;;;;;;2.53;0.60;;;;;;;;;;5323991;28;20327;-67
2022/09/26 05:03:17;;;;;;;4.00;0.80;;;;;;;;;;5323597;28;20138;-66
2022/09/26 05:05:49;;;;;;;4.60;0.57;;;;;;;;;;5323685;28;20027;-66
2022/09/26 05:08:22;;;;;;;3.40;0.60;;;;;;;;;;5324291;28;20020;-66
2022/09/26 05:10:54;;;;;;;4.72;0.80;;;;;;;;;;5323834;28;20028;-66
2022/09/26 05:13:25;;;;;;;3.92;0.90;;;;;;;;;;5323689;28;20450;-66
2022/09/26 05:16:00;;;;;;;4.40;0.68;;;;;;;;;;5323177;28;20019;-66
2022/09/26 05:18:32;;;;;;;6.13;0.70;;;;;;;;;;5323615;28;20023;-66
2022/09/26 05:21:05;;;;;;;4.88;0.77;;;;;;;;;;5324206;28;20080;-67
2022/09/26 05:26:29;;;;;;;4.88;0.90;;;;;;;;;;5323708;28;20071;-66
2022/09/26 05:29:03;;;;;;;3.70;0.60;;;;;;;;;;5323901;28;20020;-66
2022/09/26 05:31:36;;;;;;;3.60;0.77;;;;;;;;;;5322436;28;20027;-66
2022/09/26 05:34:10;;;;;;;6.55;1.55;;;;;;;;;;5323887;28;20031;-66
2022/09/26 05:36:42;;;;;;;4.00;0.98;;;;;;;;;;5321768;28;20016;-67
2022/09/26 05:42:06;;;;;;;10.00;1.73;;;;;;;;;;5324142;28;20019;-66
2022/09/26 05:44:38;;;;;;;5.57;1.30;;;;;;;;;;5322252;28;20474;-67
2022/09/26 05:47:10;;;;;;;4.05;1.15;;;;;;;;;;5323488;28;20016;-66
2022/09/26 05:49:41;;;;;;;5.40;1.25;;;;;;;;;;5322652;28;20077;-66
2022/09/26 05:52:13;;;;;;;6.13;1.48;;;;;;;;;;5322756;28;20023;-66
2022/09/26 05:54:44;;;;;;;4.97;1.10;;;;;;;;;;5322901;28;20019;-66
2022/09/26 05:57:15;;;;;;;6.95;1.30;;;;;;;;;;5323624;28;20030;-67
2022/09/26 05:59:46;;;;;;;6.13;1.23;;;;;;;;;;5322025;28;20025;-66
2022/09/26 06:02:18;;;;;;;7.03;1.30;;;;;;;;;;5323635;28;20348;-66
2022/09/26 06:04:49;;;;;;;4.82;1.33;;;;;;;;;;5322014;28;20323;-66
2022/09/26 06:07:20;;;;;;;4.93;1.10;;;;;;;;;;5323471;28;20269;-66
2022/09/26 06:09:51;;;;;;;4.10;1.33;;;;;;;;;;5322575;28;20257;-66
2022/09/26 06:12:24;;;;;;;6.35;1.30;;;;;;;;;;5322459;28;20548;-66
2022/09/26 06:14:56;;;;;;;6.70;1.58;;;;;;;;;;5323442;28;20007;-66
2022/09/26 06:17:27;;;;;;;3.67;1.33;;;;;;;;;;5322696;28;20008;-66
2022/09/26 06:19:58;;;;;;;6.38;1.45;;;;;;;;;;5322507;28;20065;-65
2022/09/26 06:22:32;;;;;;;10.32;1.48;;;;;;;;;;5322502;28;20058;-66
2022/09/26 06:25:04;;;;;;;7.13;1.17;;;;;;;;;;5323103;28;20489;-66
2022/09/26 06:27:37;;;;;;;5.88;1.00;;;;;;;;;;5321927;28;20020;-66
2022/09/26 06:30:09;;;;;;;4.70;0.80;;;;;;;;;;5323350;28;20092;-66
2022/09/26 06:32:40;;;;;;;4.68;0.73;;;;;;;;;;5322482;28;20022;-66
2022/09/26 06:35:12;;;;;;;8.23;0.80;;;;;;;;;;5322175;28;20016;-66
2022/09/26 06:37:43;;;;;;;5.65;1.20;;;;;;;;;;5322764;28;20092;-66
2022/09/26 06:40:14;;;;;;;6.18;0.70;;;;;;;;;;5322475;28;20019;-66
2022/09/26 06:42:46;;;;;;;5.03;0.70;;;;;;;;;;5322368;28;20018;-66
2022/09/26 06:45:17;;;;;;;4.68;0.85;;;;;;;;;;5322899;28;20571;-66
2022/09/26 06:47:48;;;;;;;3.45;0.63;;;;;;;;;;5323976;28;20078;-66
2022/09/26 06:50:20;;;;;;;3.75;0.70;;;;;;;;;;5326784;28;20043;-65
2022/09/26 06:52:51;;;;;;;3.97;0.70;;;;;;;;;;5326231;28;20462;-67
2022/09/26 06:55:22;;;;;;;5.78;0.68;;;;;;;;;;5325982;28;20402;-66
2022/09/26 06:57:53;;;;;;;2.45;0.40;;;;;;;;;;5326260;28;20573;-66
2022/09/26 07:00:25;;;;;;;4.00;0.60;;;;;;;;;;5326452;28;20019;-66
2022/09/26 07:02:56;;;;;;;4.40;0.60;;;;;;;;;;5326112;28;20019;-66
2022/09/26 07:05:27;;;;;;;1.88;0.47;;;;;;;;;;5325941;28;20032;-67
2022/09/26 07:07:59;;;;;;;5.50;0.60;;;;;;;;;;5325919;27;20370;-66
2022/09/26 07:10:33;;;;;;;2.78;0.60;;;;;;;;;;5325990;28;20138;-66
2022/09/26 07:13:05;;;;;;;4.25;0.70;;;;;;;;;;5326851;28;20419;-66
2022/09/26 07:15:36;;;;;;;1.98;0.40;;;;;;;;;;5325251;28;20043;-67
2022/09/26 07:18:08;;;;;;;2.40;0.50;;;;;;;;;;5326625;28;20066;-67
2022/09/26 07:20:44;;;;;;;4.78;0.60;;;;;;;;;;5325920;28;20028;-67
2022/09/26 07:23:15;;;;;;;3.45;0.50;;;;;;;;;;5325517;28;20062;-67
2022/09/26 07:25:46;;;;;;;3.60;0.50;;;;;;;;;;5325566;28;20055;-67
2022/09/26 07:28:18;;;;;;;3.28;0.47;;;;;;;;;;5326209;28;20020;-67
2022/09/26 07:30:49;;;;;;;3.05;0.47;;;;;;;;;;5325031;28;20402;-67
2022/09/26 07:33:20;;;;;;;2.78;0.45;;;;;;;;;;5326158;28;20035;-67
2022/09/26 07:35:51;;;;;;;4.03;0.80;;;;;;;;;;5325564;28;20024;-66
2022/09/26 07:38:23;;;;;;;3.45;0.95;;;;;;;;;;5325643;28;20301;-67
2022/09/26 07:40:54;;;;;;;3.33;0.50;;;;;;;;;;5325844;28;20276;-67
2022/09/26 07:43:25;;;;;;;6.80;0.50;;;;;;;;;;5324372;28;20019;-67
2022/09/26 07:51:37;;;;;;;2.83;0.50;;;;;;;;;;5324805;28;20043;-67
2022/09/26 07:54:09;;;;;;;2.58;0.60;;;;;;;;;;5325765;28;20482;-67
2022/09/26 07:56:40;;;;;;;2.55;0.50;;;;;;;;;;5320694;28;20107;-66
2022/09/26 07:59:11;;;;;;;2.75;0.73;;;;;;;;;;5324221;27;20020;-66
2022/09/26 08:01:44;;;;;;;3.78;0.50;;;;;;;;;;5324879;28;20114;-67
2022/09/26 08:04:15;;;;;;;4.57;0.70;;;;;;;;;;5323984;28;20338;-67
2022/09/26 08:06:47;;;;;;;2.80;0.50;;;;;;;;;;5324832;28;20011;-67
2022/09/26 08:09:18;;;;;;;5.07;0.50;;;;;;;;;;5325270;28;20091;-66
2022/09/26 08:11:50;;;;;;;3.63;0.60;;;;;;;;;;5324056;28;20118;-65
2022/09/26 08:14:21;;;;;;;1.92;0.47;;;;;;;;;;5325611;28;20254;-65
2022/09/26 08:16:55;;;;;;;7.07;0.70;;;;;;;;;;5324824;28;20019;-66
2022/09/26 08:19:26;;;;;;;6.40;0.57;;;;;;;;;;5323732;28;20264;-66
2022/09/26 08:21:57;;;;;;;3.73;0.50;;;;;;;;;;5325124;28;20019;-66
2022/09/26 08:24:29;;;;;;;5.07;0.80;;;;;;;;;;5324355;28;20775;-66
2022/09/26 08:27:00;;;;;;;4.65;0.80;;;;;;;;;;5324378;28;20072;-66
2022/09/26 08:29:32;;;;;;;3.90;0.60;;;;;;;;;;5324473;28;20448;-66
2022/09/26 08:32:04;;;;;;;3.38;0.57;;;;;;;;;;5324926;28;20023;-66
2022/09/26 08:34:35;;;;;;;6.28;0.60;;;;;;;;;;5323389;28;20053;-67
2022/09/26 08:37:06;;;;;;;7.85;0.65;;;;;;;;;;5324917;28;20099;-66
2022/09/26 08:39:38;;;;;;;3.05;0.73;;;;;;;;;;5323594;28;20054;-66
2022/09/26 08:42:12;;;;;;;6.40;0.80;;;;;;;;;;5324637;28;20399;-66
2022/09/26 08:44:53;;;;;;;3.75;0.90;;;;;;;;;;5324037;28;20394;-66
2022/09/26 08:47:41;;;;;;;7.65;0.80;;;;;;;;;;5323735;28;20069;-67
2022/09/26 08:50:27;;;;;;;5.38;1.50;;;;;;;;;;5324823;28;20398;-67
2022/09/26 08:53:04;;;;;;;2.28;0.60;;;;;;;;;;5324529;28;20078;-67
2022/09/26 08:55:40;;;;;;;4.13;0.73;;;;;;;;;;5323161;28;20012;-67
2022/09/26 08:58:19;;;;;;;7.13;1.08;;;;;;;;;;5324686;28;20046;-67
2022/09/26 09:00:56;;;;;;;4.65;1.13;;;;;;;;;;5323164;28;20571;-66
2022/09/26 09:03:35;;;;;;;7.95;0.60;;;;;;;;;;5322741;28;20531;-67
2022/09/26 09:06:06;;;;;;;;;;;;;;;;;;5324400;27;20023;-66
2022/09/26 09:08:38;;;;;;;5.00;1.35;;;;;;;;;;5323028;28;20278;-66
2022/09/26 09:11:18;;;;;;;5.43;1.15;;;;;;;;;;5323118;28;20015;-66
2022/09/26 09:13:50;;;;;;;7.50;0.70;;;;;;;;;;5323600;28;20100;-66
2022/09/26 09:16:38;;;;;;;11.85;1.45;;;;;;;;;;5323341;28;20410;-66
2022/09/26 09:19:15;;;;;;;7.63;2.40;;;;;;;;;;5323712;28;20070;-66
2022/09/26 09:22:04;;;;;;;6.97;1.33;;;;;;;;;;5322686;28;20453;-65
2022/09/26 09:24:45;;;;;;;6.90;1.33;;;;;;;;;;5323542;28;20390;-65
2022/09/26 09:27:35;;;;;;;5.90;1.27;;;;;;;;;;5324173;28;20019;-65
2022/09/26 09:30:09;;;;;;;8.35;1.33;;;;;;;;;;5323215;28;20488;-66
2022/09/26 09:32:46;;;;;;;3.33;0.70;;;;;;;;;;5323607;28;20420;-66
2022/09/26 09:35:19;;;;;;;2.58;0.60;;;;;;;;;;5324081;28;20028;-67
2022/09/26 09:37:52;;;;;;;5.80;0.85;;;;;;;;;;5322769;28;20471;-65
2022/09/26 09:40:34;;;;;;;4.82;0.90;;;;;;;;;;5323666;28;20172;-67
2022/09/26 09:43:11;;;;;;;7.88;0.85;;;;;;;;;;5323393;28;20034;-66
2022/09/26 09:45:46;;;;;;;4.28;0.73;;;;;;;;;;5323515;28;20463;-67
2022/09/26 09:48:18;;;;;;;7.30;0.98;;;;;;;;;;5323999;28;20019;-66
2022/09/26 09:50:55;;;;;;;5.57;1.20;;;;;;;;;;5322283;28;20131;-66
2022/09/26 09:53:49;;;;;;;5.25;0.70;;;;;;;;;;5322796;28;20058;-66
2022/09/26 09:56:26;;;;;;;5.70;0.60;;;;;;;;;;5324052;28;20386;-66
2022/09/26 09:59:08;;;;;;;5.22;0.80;;;;;;;;;;5323163;28;20046;-66
2022/09/26 10:01:41;;;;;;;6.47;0.80;;;;;;;;;;5323223;28;20019;-66
2022/09/26 10:04:19;;;;;;;7.90;1.05;;;;;;;;;;5323031;28;20107;-67
2022/09/26 10:06:51;;;;;;;2.70;0.70;;;;;;;;;;5323492;28;20047;-66
2022/09/26 10:09:25;;;;;;;6.13;0.93;;;;;;;;;;5323635;28;20051;-66
2022/09/26 10:11:57;;;;;;;6.15;0.80;;;;;;;;;;5322828;28;20019;-66
2022/09/26 10:14:39;;;;;;;5.50;0.88;;;;;;;;;;5323155;28;20023;-66
2022/09/26 10:17:10;;;;;;;5.88;1.15;;;;;;;;;;5323733;28;20024;-66
2022/09/26 10:19:43;;;;;;;3.05;0.70;;;;;;;;;;5322162;28;20023;-66
2022/09/26 10:22:24;;;;;;;3.08;0.85;;;;;;;;;;5325249;28;20019;-66
2022/09/26 10:24:59;;;;;;;6.55;0.80;;;;;;;;;;5327030;28;20035;-66
2022/09/26 10:27:34;;;;;;;3.15;0.73;;;;;;;;;;5327215;28;20368;-66
2022/09/26 10:30:17;;;;;;;6.68;1.10;;;;;;;;;;5327858;28;20023;-66
2022/09/26 10:32:53;;;;;;;3.65;0.73;;;;;;;;;;5326438;28;20028;-65
2022/09/26 10:35:27;;;;;;;5.18;0.73;;;;;;;;;;5327267;28;20034;-66
2022/09/26 10:38:04;;;;;;;2.60;0.77;;;;;;;;;;5327610;28;20095;-65
2022/09/26 10:40:45;;;;;;;5.57;1.15;;;;;;;;;;5326174;28;20470;-66
2022/09/26 10:43:17;;;;;;;4.38;0.80;;;;;;;;;;5327453;28;20030;-66
2022/09/26 10:45:52;;;;;;;3.58;1.05;;;;;;;;;;5326854;28;20378;-66
2022/09/26 10:48:26;;;;;;;6.03;1.42;;;;;;;;;;5326211;28;20266;-66
2022/09/26 10:50:59;;;;;;;4.65;0.90;;;;;;;;;;5327030;28;20112;-68
2022/09/26 10:53:33;;;;;;;7.20;1.00;;;;;;;;;;5325485;28;20075;-66
2022/09/26 10:56:07;;;;;;;4.65;0.93;;;;;;;;;;5327021;28;20374;-66
2022/09/26 10:58:44;;;;;;;5.60;0.95;;;;;;;;;;5326503;28;20026;-66
2022/09/26 11:01:17;;;;;;;6.28;1.42;;;;;;;;;;5326314;28;20027;-66
2022/09/26 11:03:49;;;;;;;3.63;1.08;;;;;;;;;;5326231;28;20021;-65
2022/09/26 11:06:26;;;;;;;4.72;0.90;;;;;;;;;;5327168;28;20528;-65
2022/09/26 11:09:01;;;;;;;4.68;0.82;;;;;;;;;;5326314;28;20015;-65
2022/09/26 11:11:35;;;;;;;6.18;0.77;;;;;;;;;;5326402;28;20020;-65
2022/09/26 11:14:07;;;;;;;3.20;1.00;;;;;;;;;;5326233;28;20019;-65
2022/09/26 11:16:47;;;;;;;3.28;0.85;;;;;;;;;;5325938;28;20016;-65
2022/09/26 11:19:41;;;;;;;5.07;1.13;;;;;;;;;;5326168;28;20027;-65
2022/09/26 11:22:18;;;;;;;4.60;1.00;;;;;;;;;;5325691;28;20107;-65
2022/09/26 11:25:07;;;;;;;5.90;0.95;;;;;;;;;;5325890;28;20501;-66
2022/09/26 11:27:45;;;;;;;3.38;1.00;;;;;;;;;;5326027;28;20066;-65
2022/09/26 11:30:19;;;;;;;3.15;0.68;;;;;;;;;;5325691;28;20031;-65
2022/09/26 11:32:52;;;;;;;2.65;0.75;;;;;;;;;;5325429;28;20015;-65
2022/09/26 11:35:43;;;;;;;4.65;1.25;;;;;;;;;;5324233;28;20427;-65
2022/09/26 11:38:21;;;;;;;3.47;1.00;;;;;;;;;;5326472;28;20028;-68
2022/09/26 11:41:06;;;;;;;3.53;1.00;;;;;;;;;;5325613;28;20023;-67
2022/09/26 11:43:52;;;;;;;2.80;0.70;;;;;;;;;;5324849;28;20458;-67
2022/09/26 11:46:38;;;;;;;4.65;0.90;;;;;;;;;;5326313;28;20083;-67
2022/09/26 11:49:28;;;;;;;3.58;0.80;;;;;;;;;;5326086;27;20015;-67
2022/09/26 11:52:08;;;;;;;2.97;0.85;;;;;;;;;;5325908;28;20032;-65
2022/09/26 11:54:49;;;;;;;3.92;0.60;;;;;;;;;;5325524;28;20020;-65
2022/09/26 11:57:39;;;;;;;4.28;0.70;;;;;;;;;;5325159;28;20023;-65
2022/09/26 12:00:23;;;;;;;5.07;0.80;;;;;;;;;;5325848;28;20028;-64
2022/09/26 12:03:12;;;;;;;3.15;0.73;;;;;;;;;;5325640;28;20482;-65
2022/09/26 12:05:49;;;;;;;3.85;0.90;;;;;;;;;;5324419;28;20032;-65
2022/09/26 12:08:39;;;;;;;4.72;0.65;;;;;;;;;;5325663;28;20020;-66
2022/09/26 12:11:27;;;;;;;1.67;0.70;;;;;;;;;;5324860;28;20012;-66
2022/09/26 12:13:58;;;;;;;5.57;0.90;;;;;;;;;;5325839;28;20094;-66
2022/09/26 12:16:48;;;;;;;2.13;0.60;;;;;;;;;;5324551;28;20106;-66
2022/09/26 12:19:34;;;;;;;5.45;0.65;;;;;;;;;;5325004;28;20770;-66
2022/09/26 12:22:29;;;;;;;2.55;0.73;;;;;;;;;;5325672;28;20425;-66
2022/09/26 12:25:23;;;;;;;2.85;0.50;;;;;;;;;;5324618;28;20042;-66
2022/09/26 12:28:02;;;;;;;1.58;0.80;;;;;;;;;;5324992;28;20023;-66
2022/09/26 12:30:38;;;;;;;6.03;0.60;;;;;;;;;;5324879;28;20023;-66
2022/09/26 12:33:19;;;;;;;4.25;0.98;;;;;;;;;;5324443;28;20055;-65
2022/09/26 12:35:59;;;;;;;18.65;1.95;;;;;;;;;;5324687;28;20122;-66
2022/09/26 12:38:47;;;;;;;14.45;0.90;;;;;;;;;;5324036;28;20012;-66
2022/09/26 12:41:27;;;;;;;4.37;0.60;;;;;;;;;;5325202;28;20367;-68
2022/09/26 12:43:58;;;;;;;2.63;0.55;;;;;;;;;;5325134;28;20378;-65
2022/09/26 12:46:48;;;;;;;2.35;0.52;;;;;;;;;;5323979;28;20020;-65
2022/09/26 12:49:38;;;;;;;1.90;0.50;;;;;;;;;;5325153;28;20313;-64
2022/09/26 12:52:10;;;;;;;1.42;0.60;;;;;;;;;;5324900;28;20070;-66
2022/09/26 12:55:06;;;;;;;3.10;0.70;;;;;;;;;;5323381;28;20047;-66
2022/09/26 12:57:52;;;;;;;1.83;0.40;;;;;;;;;;5324238;28;20058;-64
2022/09/26 13:00:24;;;;;;;2.90;0.40;;;;;;;;;;5323442;28;20023;-65
2022/09/26 13:03:14;;;;;;;3.00;0.50;;;;;;;;;;5324266;28;20012;-66
2022/09/26 13:06:05;;;;;;;1.73;0.55;;;;;;;;;;5323861;28;20146;-65
2022/09/26 13:08:37;;;;;;;2.10;0.50;;;;;;;;;;5291594;28;20429;-65
2022/09/26 13:11:22;;;;;;;1.63;0.40;;;;;;;;;;5324443;28;20091;-67
2022/09/26 13:14:11;;;;;;;2.08;0.50;;;;;;;;;;5322925;27;20673;-66
2022/09/26 13:16:42;;;;;;;2.20;0.40;;;;;;;;;;5311409;28;20020;-65
2022/09/26 13:19:14;;;;;;;2.03;0.50;;;;;;;;;;5305706;28;20031;-65
2022/09/26 13:22:05;;;;;;;3.05;0.70;;;;;;;;;;5300275;28;20675;-65
2022/09/26 13:24:46;;;;;;;1.67;0.40;;;;;;;;;;5268767;28;20422;-64
2022/09/26 13:27:26;;;;;;;3.03;0.50;;;;;;;;;;5319940;28;20054;-64
2022/09/26 13:30:01;;;;;;;11.20;1.67;;;;;;;;;;5322232;28;20034;-64
2022/09/26 13:32:47;;;;;;;1.88;0.50;;;;;;;;;;5322471;27;20096;-65
2022/09/26 13:35:19;;;;;;;2.65;0.80;;;;;;;;;;5310415;28;20046;-65
2022/09/26 13:38:00;;;;;;;1.83;0.60;;;;;;;;;;5313497;28;20049;-64
2022/09/26 13:40:50;;;;;;;1.50;0.47;;;;;;;;;;5310268;28;20127;-65
2022/09/26 13:43:42;;;;;;;3.47;0.52;;;;;;;;;;5314541;28;20035;-65
2022/09/26 13:46:14;;;;;;;1.85;0.60;;;;;;;;;;5301293;28;20040;-65
2022/09/26 13:48:52;;;;;;;0.88;0.50;;;;;;;;;;5313642;28;20027;-64
2022/09/26 13:51:25;;;;;;;2.92;0.60;;;;;;;;;;5321775;28;20066;-65
2022/09/26 13:54:07;;;;;;;2.83;0.70;;;;;;;;;;5322088;28;20090;-64
2022/09/26 13:56:42;;;;;;;2.88;0.73;;;;;;;;;;5320935;28;20051;-65
2022/09/26 13:59:14;;;;;;;0.93;0.40;;;;;;;;;;5322496;28;20020;-65
2022/09/26 14:02:04;;;;;;;1.77;0.50;;;;;;;;;;5322168;28;20031;-64
2022/09/26 14:04:35;;;;;;;2.63;0.60;;;;;;;;;;5320731;28;20067;-64
2022/09/26 14:10:00;;;;;;;1.58;0.47;;;;;;;;;;5321501;28;20024;-64
2022/09/26 14:12:50;;;;;;;2.38;0.65;;;;;;;;;;5321706;28;20020;-65
2022/09/26 14:15:25;;;;;;;1.15;0.50;;;;;;;;;;5322578;28;20035;-64
2022/09/26 14:18:09;;;;;;;1.73;0.50;;;;;;;;;;5321762;28;20032;-64
2022/09/26 14:20:53;;;;;;;2.63;0.50;;;;;;;;;;5319388;28;20111;-64
2022/09/26 14:23:35;;;;;;;1.75;0.40;;;;;;;;;;5301070;28;20020;-64
2022/09/26 14:26:26;;;;;;;2.25;0.50;;;;;;;;;;5300507;28;20174;-64
2022/09/26 14:29:23;;;;;;;1.88;0.40;;;;;;;;;;5300418;28;20024;-64
2022/09/26 14:32:04;;;;;;;2.55;0.50;;;;;;;;;;5300349;28;20028;-64
2022/09/26 14:34:45;;;;;;;1.00;0.50;;;;;;;;;;5300706;28;20074;-64
2022/09/26 14:37:25;;;;;;;1.65;0.40;;;;;;;;;;5301443;28;20479;-64
2022/09/26 14:40:08;;;;;;;1.58;0.47;;;;;;;;;;5300258;28;20157;-65
2022/09/26 14:42:49;;;;;;;2.80;0.45;;;;;;;;;;5300180;28;20016;-64
2022/09/26 14:45:24;;;;;;;1.70;0.57;;;;;;;;;;5300641;28;20028;-65
2022/09/26 14:48:04;;;;;;;0.98;0.40;;;;;;;;;;5301417;28;20067;-65
2022/09/26 14:50:43;;;;;;;2.30;0.50;;;;;;;;;;5301255;28;20048;-65
2022/09/26 14:53:14;;;;;;;;;;;;;;;;;;5300587;28;20050;-65
2022/09/26 14:55:57;;;;;;;1.13;0.40;;;;;;;;;;5301604;28;20361;-65
2022/09/26 14:58:35;;;;;;;1.45;0.50;;;;;;;;;;5301388;28;20016;-65
2022/09/26 15:01:16;;;;;;;2.50;0.50;;;;;;;;;;5301300;28;20024;-65
2022/09/26 15:04:08;;;;;;;1.88;0.47;;;;;;;;;;5301172;28;20425;-65
2022/09/26 15:06:42;;;;;;;1.02;0.40;;;;;;;;;;5286271;28;20560;-65
2022/09/26 15:09:24;;;;;;;1.88;0.40;;;;;;;;;;5303639;28;20028;-65
2022/09/26 15:12:01;;;;;;;1.25;0.40;;;;;;;;;;5305103;28;20066;-64
2022/09/26 15:14:36;;;;;;;1.20;0.30;;;;;;;;;;5304551;28;20019;-65
2022/09/26 15:17:19;;;;;;;0.80;0.30;;;;;;;;;;5305894;28;20020;-65
2022/09/26 15:19:51;;;;;;;3.05;0.60;;;;;;;;;;5305300;28;20394;-66
2022/09/26 15:22:23;;;;;;;0.80;0.30;;;;;;;;;;5304781;28;20447;-65
2022/09/26 15:25:06;;;;;;;1.92;0.30;;;;;;;;;;5305290;28;20073;-65
2022/09/26 15:27:42;;;;;;;0.73;0.30;;;;;;;;;;5304268;28;20512;-65
2022/09/26 15:30:26;;;;;;;1.48;0.30;;;;;;;;;;5305519;28;20038;-65
2022/09/26 15:32:58;;;;;;;0.85;0.20;;;;;;;;;;5305197;28;20023;-64
2022/09/26 15:35:30;;;;;;;0.60;0.17;;;;;;;;;;5303958;28;20024;-65
2022/09/26 15:38:08;;;;;;;1.48;0.22;;;;;;;;;;5305773;28;20416;-65
2022/09/26 15:40:40;;;;;;;0.98;0.40;;;;;;;;;;5304705;28;20016;-65
2022/09/26 15:43:14;;;;;;;0.93;0.40;;;;;;;;;;5304366;28;20020;-65
2022/09/26 15:45:46;;;;;;;0.85;0.20;;;;;;;;;;5304557;28;20301;-64
2022/09/26 15:48:17;;;;;;;0.57;0.20;;;;;;;;;;5305091;28;20020;-65
2022/09/26 15:50:58;;;;;;;0.40;0.20;;;;;;;;;;5303583;28;20419;-64